sensor_id;sensor_type;location;lat;lon;timestamp;temperature;humidity
27896;DHT22;15241;48.374;10.876;2022-09-12T00:04:00;15.00;99.90
27896;DHT22;15241;48.374;10.876;2022-09-12T00:09:03;15.00;99.90
27896;DHT22;15241;48.374;10.876;2022-09-12T00:14:02;15.10;99.90
27896;DHT22;15241;48.374;10.876;2022-09-12T00:24:08;14.90;99.90
27896;DHT22;15241;48.374;10.876;2022-09-12T00:29:08;14.80;99.90
27896;DHT22;15241;48.374;10.876;2022-09-12T00:34:08;14.70;99.90
27896;DHT22;15241;48.374;10.876;2022-09-12T00:39:07;14.60;99.90
27896;DHT22;15241;48.374;10.876;2022-09-12T00:44:41;14.60;99.90
27896;DHT22;15241;48.374;10.876;2022-09-12T00:49:43;14.70;99.90
27896;DHT22;15241;48.374;10.876;2022-09-12T00:54:45;14.70;99.90
27896;DHT22;15241;48.374;10.876;2022-09-12T00:59:47;14.70;99.90
27896;DHT22;15241;48.374;10.876;2022-09-12T01:04:47;14.60;99.90
27896;DHT22;15241;48.374;10.876;2022-09-12T01:09:46;14.40;99.90
27896;DHT22;15241;48.374;10.876;2022-09-12T01:14:45;14.40;99.90
27896;DHT22;15241;48.374;10.876;2022-09-12T01:20:10;14.40;99.90
27896;DHT22;15241;48.374;10.876;2022-09-12T01:35:50;14.20;99.90
27896;DHT22;15241;48.374;10.876;2022-09-12T01:40:52;14.10;99.90
27896;DHT22;15241;48.374;10.876;2022-09-12T01:45:55;14.10;99.90
27896;DHT22;15241;48.374;10.876;2022-09-12T01:56:07;14.00;99.90
27896;DHT22;15241;48.374;10.876;2022-09-12T02:01:09;14.00;99.90
27896;DHT22;15241;48.374;10.876;2022-09-12T02:11:18;13.90;99.90
27896;DHT22;15241;48.374;10.876;2022-09-12T02:16:20;13.90;99.90
27896;DHT22;15241;48.374;10.876;2022-09-12T02:21:21;13.80;99.90
27896;DHT22;15241;48.374;10.876;2022-09-12T02:26:24;13.80;99.90
27896;DHT22;15241;48.374;10.876;2022-09-12T02:31:26;13.70;99.90
27896;DHT22;15241;48.374;10.876;2022-09-12T02:36:31;13.60;99.90
27896;DHT22;15241;48.374;10.876;2022-09-12T02:41:34;13.60;99.90
27896;DHT22;15241;48.374;10.876;2022-09-12T02:46:35;13.60;99.90
27896;DHT22;15241;48.374;10.876;2022-09-12T02:51:35;13.60;99.90
27896;DHT22;15241;48.374;10.876;2022-09-12T02:56:35;13.60;99.90
27896;DHT22;15241;48.374;10.876;2022-09-12T03:01:48;13.50;99.90
27896;DHT22;15241;48.374;10.876;2022-09-12T03:06:49;13.40;99.90
27896;DHT22;15241;48.374;10.876;2022-09-12T03:12:12;13.40;99.90
27896;DHT22;15241;48.374;10.876;2022-09-12T03:17:16;13.40;99.90
27896;DHT22;15241;48.374;10.876;2022-09-12T03:22:17;13.40;99.90
27896;DHT22;15241;48.374;10.876;2022-09-12T03:27:19;13.30;99.90
27896;DHT22;15241;48.374;10.876;2022-09-12T03:32:18;13.30;99.90
27896;DHT22;15241;48.374;10.876;2022-09-12T03:37:17;13.20;99.90
27896;DHT22;15241;48.374;10.876;2022-09-12T03:42:16;13.20;99.90
27896;DHT22;15241;48.374;10.876;2022-09-12T03:47:15;13.20;99.90
27896;DHT22;15241;48.374;10.876;2022-09-12T03:52:14;13.10;99.90
27896;DHT22;15241;48.374;10.876;2022-09-12T03:57:13;13.10;99.90
27896;DHT22;15241;48.374;10.876;2022-09-12T04:02:12;13.10;99.90
27896;DHT22;15241;48.374;10.876;2022-09-12T04:07:11;13.00;99.90
27896;DHT22;15241;48.374;10.876;2022-09-12T04:12:10;12.90;99.90
27896;DHT22;15241;48.374;10.876;2022-09-12T04:17:09;12.90;99.90
27896;DHT22;15241;48.374;10.876;2022-09-12T04:22:08;12.90;99.90
27896;DHT22;15241;48.374;10.876;2022-09-12T04:27:07;12.90;99.90
27896;DHT22;15241;48.374;10.876;2022-09-12T04:32:06;12.80;99.90
27896;DHT22;15241;48.374;10.876;2022-09-12T04:37:05;12.80;99.90
27896;DHT22;15241;48.374;10.876;2022-09-12T04:42:05;12.80;99.90
27896;DHT22;15241;48.374;10.876;2022-09-12T04:47:04;12.70;99.90
27896;DHT22;15241;48.374;10.876;2022-09-12T04:52:03;12.70;99.90
27896;DHT22;15241;48.374;10.876;2022-09-12T04:57:03;12.70;99.90
27896;DHT22;15241;48.374;10.876;2022-09-12T05:02:01;12.60;99.90
27896;DHT22;15241;48.374;10.876;2022-09-12T05:07:00;12.70;99.90
27896;DHT22;15241;48.374;10.876;2022-09-12T05:12:00;12.70;99.90
27896;DHT22;15241;48.374;10.876;2022-09-12T05:16:59;12.60;99.90
27896;DHT22;15241;48.374;10.876;2022-09-12T05:21:58;12.70;99.90
27896;DHT22;15241;48.374;10.876;2022-09-12T05:26:57;12.70;99.90
27896;DHT22;15241;48.374;10.876;2022-09-12T05:31:56;12.70;99.90
27896;DHT22;15241;48.374;10.876;2022-09-12T05:36:55;12.70;99.90
27896;DHT22;15241;48.374;10.876;2022-09-12T05:41:54;12.80;99.90
27896;DHT22;15241;48.374;10.876;2022-09-12T05:46:53;12.90;99.90
27896;DHT22;15241;48.374;10.876;2022-09-12T05:51:52;12.90;99.90
27896;DHT22;15241;48.374;10.876;2022-09-12T05:56:51;13.00;99.90
27896;DHT22;15241;48.374;10.876;2022-09-12T06:01:49;13.00;99.90
27896;DHT22;15241;48.374;10.876;2022-09-12T06:06:48;13.10;99.90
27896;DHT22;15241;48.374;10.876;2022-09-12T06:11:47;13.10;99.90
27896;DHT22;15241;48.374;10.876;2022-09-12T06:16:46;13.30;99.90
27896;DHT22;15241;48.374;10.876;2022-09-12T06:21:46;13.40;99.90
27896;DHT22;15241;48.374;10.876;2022-09-12T06:26:45;13.40;99.90
27896;DHT22;15241;48.374;10.876;2022-09-12T06:31:44;13.40;99.90
27896;DHT22;15241;48.374;10.876;2022-09-12T06:36:45;13.50;99.90
27896;DHT22;15241;48.374;10.876;2022-09-12T06:41:45;13.70;99.90
27896;DHT22;15241;48.374;10.876;2022-09-12T06:46:44;13.90;99.90
27896;DHT22;15241;48.374;10.876;2022-09-12T06:51:43;14.00;99.90
27896;DHT22;15241;48.374;10.876;2022-09-12T06:56:42;14.00;99.90
27896;DHT22;15241;48.374;10.876;2022-09-12T07:01:41;14.10;99.90
27896;DHT22;15241;48.374;10.876;2022-09-12T07:06:41;14.10;99.90
27896;DHT22;15241;48.374;10.876;2022-09-12T07:11:42;14.30;99.90
27896;DHT22;15241;48.374;10.876;2022-09-12T07:16:41;14.50;99.90
27896;DHT22;15241;48.374;10.876;2022-09-12T07:21:40;14.50;99.90
27896;DHT22;15241;48.374;10.876;2022-09-12T07:26:40;14.60;99.90
27896;DHT22;15241;48.374;10.876;2022-09-12T07:31:39;14.70;99.90
27896;DHT22;15241;48.374;10.876;2022-09-12T07:36:38;14.80;99.90
27896;DHT22;15241;48.374;10.876;2022-09-12T07:41:36;15.00;99.90
27896;DHT22;15241;48.374;10.876;2022-09-12T07:46:36;15.10;99.90
27896;DHT22;15241;48.374;10.876;2022-09-12T07:51:35;15.40;99.90
27896;DHT22;15241;48.374;10.876;2022-09-12T07:56:33;15.60;99.90
27896;DHT22;15241;48.374;10.876;2022-09-12T08:01:33;15.80;99.90
27896;DHT22;15241;48.374;10.876;2022-09-12T08:06:33;16.00;99.90
27896;DHT22;15241;48.374;10.876;2022-09-12T08:11:32;16.20;99.90
27896;DHT22;15241;48.374;10.876;2022-09-12T08:16:32;16.50;99.90
27896;DHT22;15241;48.374;10.876;2022-09-12T08:21:32;16.80;99.90
27896;DHT22;15241;48.374;10.876;2022-09-12T08:26:32;17.20;99.90
27896;DHT22;15241;48.374;10.876;2022-09-12T08:31:40;17.50;99.90
27896;DHT22;15241;48.374;10.876;2022-09-12T08:36:39;17.80;99.90
27896;DHT22;15241;48.374;10.876;2022-09-12T08:41:40;18.20;99.90
27896;DHT22;15241;48.374;10.876;2022-09-12T08:46:45;18.50;99.90
27896;DHT22;15241;48.374;10.876;2022-09-12T08:51:44;18.90;99.90
27896;DHT22;15241;48.374;10.876;2022-09-12T08:56:43;19.30;99.90
27896;DHT22;15241;48.374;10.876;2022-09-12T09:01:44;19.60;99.90
27896;DHT22;15241;48.374;10.876;2022-09-12T09:06:51;19.90;99.90
27896;DHT22;15241;48.374;10.876;2022-09-12T09:11:58;20.30;99.90
27896;DHT22;15241;48.374;10.876;2022-09-12T09:16:57;20.70;99.90
27896;DHT22;15241;48.374;10.876;2022-09-12T09:21:59;21.10;99.90
27896;DHT22;15241;48.374;10.876;2022-09-12T09:27:00;21.40;99.90
27896;DHT22;15241;48.374;10.876;2022-09-12T09:32:02;21.90;99.90
27896;DHT22;15241;48.374;10.876;2022-09-12T09:42:17;22.50;99.90
27896;DHT22;15241;48.374;10.876;2022-09-12T09:47:17;22.80;99.90
27896;DHT22;15241;48.374;10.876;2022-09-12T09:52:19;23.00;99.90
27896;DHT22;15241;48.374;10.876;2022-09-12T09:57:37;23.50;99.90
27896;DHT22;15241;48.374;10.876;2022-09-12T10:02:36;23.90;99.90
27896;DHT22;15241;48.374;10.876;2022-09-12T10:07:35;24.20;99.90
27896;DHT22;15241;48.374;10.876;2022-09-12T10:12:34;24.60;99.90
27896;DHT22;15241;48.374;10.876;2022-09-12T10:17:40;24.90;99.90
27896;DHT22;15241;48.374;10.876;2022-09-12T10:22:39;25.20;99.90
27896;DHT22;15241;48.374;10.876;2022-09-12T10:27:38;25.30;99.90
27896;DHT22;15241;48.374;10.876;2022-09-12T10:32:40;25.80;99.90
27896;DHT22;15241;48.374;10.876;2022-09-12T10:37:39;26.30;99.90
27896;DHT22;15241;48.374;10.876;2022-09-12T10:42:50;26.80;99.90
27896;DHT22;15241;48.374;10.876;2022-09-12T10:47:49;27.20;99.90
27896;DHT22;15241;48.374;10.876;2022-09-12T10:52:48;27.60;99.90
27896;DHT22;15241;48.374;10.876;2022-09-12T10:57:56;27.80;99.90
27896;DHT22;15241;48.374;10.876;2022-09-12T11:03:05;28.20;99.90
27896;DHT22;15241;48.374;10.876;2022-09-12T11:08:12;28.70;99.90
27896;DHT22;15241;48.374;10.876;2022-09-12T11:18:35;29.50;97.20
27896;DHT22;15241;48.374;10.876;2022-09-12T11:34:29;30.60;95.50
27896;DHT22;15241;48.374;10.876;2022-09-12T11:39:30;30.50;95.20
27896;DHT22;15241;48.374;10.876;2022-09-12T11:44:34;31.20;94.50
27896;DHT22;15241;48.374;10.876;2022-09-12T11:49:36;31.60;94.90
27896;DHT22;15241;48.374;10.876;2022-09-12T11:54:38;32.00;93.20
27896;DHT22;15241;48.374;10.876;2022-09-12T12:05:01;32.40;90.90
27896;DHT22;15241;48.374;10.876;2022-09-12T12:09:59;33.00;90.50
27896;DHT22;15241;48.374;10.876;2022-09-12T12:14:58;33.40;88.60
27896;DHT22;15241;48.374;10.876;2022-09-12T12:20:00;33.80;86.20
27896;DHT22;15241;48.374;10.876;2022-09-12T12:25:21;33.40;81.70
27896;DHT22;15241;48.374;10.876;2022-09-12T12:36:06;33.20;82.30
27896;DHT22;15241;48.374;10.876;2022-09-12T12:41:42;33.90;84.40
27896;DHT22;15241;48.374;10.876;2022-09-12T12:51:56;34.20;79.60
27896;DHT22;15241;48.374;10.876;2022-09-12T12:57:14;34.20;75.90
27896;DHT22;15241;48.374;10.876;2022-09-12T13:02:14;33.90;76.00
27896;DHT22;15241;48.374;10.876;2022-09-12T13:07:19;34.40;74.30
27896;DHT22;15241;48.374;10.876;2022-09-12T13:12:20;35.20;74.90
27896;DHT22;15241;48.374;10.876;2022-09-12T13:17:25;35.60;76.20
27896;DHT22;15241;48.374;10.876;2022-09-12T13:22:25;36.40;74.50
27896;DHT22;15241;48.374;10.876;2022-09-12T13:27:25;36.30;70.90
27896;DHT22;15241;48.374;10.876;2022-09-12T13:32:24;36.70;70.50
27896;DHT22;15241;48.374;10.876;2022-09-12T13:37:38;36.80;71.00
27896;DHT22;15241;48.374;10.876;2022-09-12T13:42:39;36.40;65.70
27896;DHT22;15241;48.374;10.876;2022-09-12T13:47:41;36.20;63.50
27896;DHT22;15241;48.374;10.876;2022-09-12T13:52:44;36.60;62.70
27896;DHT22;15241;48.374;10.876;2022-09-12T13:57:43;37.20;61.10
27896;DHT22;15241;48.374;10.876;2022-09-12T14:02:42;36.70;59.10
27896;DHT22;15241;48.374;10.876;2022-09-12T14:12:56;37.40;58.90
27896;DHT22;15241;48.374;10.876;2022-09-12T14:17:57;38.30;56.70
27896;DHT22;15241;48.374;10.876;2022-09-12T14:22:59;38.60;56.90
27896;DHT22;15241;48.374;10.876;2022-09-12T14:27:58;38.50;54.90
27896;DHT22;15241;48.374;10.876;2022-09-12T14:33:19;40.20;53.80
27896;DHT22;15241;48.374;10.876;2022-09-12T14:38:24;41.50;49.90
27896;DHT22;15241;48.374;10.876;2022-09-12T14:43:26;43.30;48.20
27896;DHT22;15241;48.374;10.876;2022-09-12T14:48:28;43.30;47.10
27896;DHT22;15241;48.374;10.876;2022-09-12T14:53:33;43.70;43.50
27896;DHT22;15241;48.374;10.876;2022-09-12T14:58:32;44.70;41.60
27896;DHT22;15241;48.374;10.876;2022-09-12T15:03:33;45.50;39.80
27896;DHT22;15241;48.374;10.876;2022-09-12T15:08:32;46.50;38.30
27896;DHT22;15241;48.374;10.876;2022-09-12T15:13:37;47.00;37.20
27896;DHT22;15241;48.374;10.876;2022-09-12T15:18:30;46.00;36.90
27896;DHT22;15241;48.374;10.876;2022-09-12T15:23:35;43.30;39.40
27896;DHT22;15241;48.374;10.876;2022-09-12T15:28:35;41.70;42.30
27896;DHT22;15241;48.374;10.876;2022-09-12T15:33:34;40.00;42.70
27896;DHT22;15241;48.374;10.876;2022-09-12T15:38:32;38.60;45.60
27896;DHT22;15241;48.374;10.876;2022-09-12T15:43:31;37.40;47.20
27896;DHT22;15241;48.374;10.876;2022-09-12T15:48:30;36.50;47.60
27896;DHT22;15241;48.374;10.876;2022-09-12T15:53:29;35.80;47.40
27896;DHT22;15241;48.374;10.876;2022-09-12T15:58:28;35.00;48.30
27896;DHT22;15241;48.374;10.876;2022-09-12T16:03:28;34.30;49.70
27896;DHT22;15241;48.374;10.876;2022-09-12T16:08:29;33.30;50.70
27896;DHT22;15241;48.374;10.876;2022-09-12T16:13:28;32.80;51.40
27896;DHT22;15241;48.374;10.876;2022-09-12T16:18:27;32.60;52.00
27896;DHT22;15241;48.374;10.876;2022-09-12T16:23:26;32.20;52.30
27896;DHT22;15241;48.374;10.876;2022-09-12T16:28:25;31.90;53.10
27896;DHT22;15241;48.374;10.876;2022-09-12T16:33:25;31.50;55.80
27896;DHT22;15241;48.374;10.876;2022-09-12T16:38:25;31.20;55.30
27896;DHT22;15241;48.374;10.876;2022-09-12T16:43:24;30.70;56.60
27896;DHT22;15241;48.374;10.876;2022-09-12T16:48:23;30.10;56.10
27896;DHT22;15241;48.374;10.876;2022-09-12T16:53:22;29.80;57.30
27896;DHT22;15241;48.374;10.876;2022-09-12T16:58:21;29.40;58.30
27896;DHT22;15241;48.374;10.876;2022-09-12T17:03:20;29.00;61.60
27896;DHT22;15241;48.374;10.876;2022-09-12T17:08:19;28.50;63.40
27896;DHT22;15241;48.374;10.876;2022-09-12T17:13:18;28.10;65.60
27896;DHT22;15241;48.374;10.876;2022-09-12T17:18:17;27.50;67.20
27896;DHT22;15241;48.374;10.876;2022-09-12T17:23:16;26.90;69.80
27896;DHT22;15241;48.374;10.876;2022-09-12T17:28:15;26.50;70.60
27896;DHT22;15241;48.374;10.876;2022-09-12T17:33:14;26.10;73.70
27896;DHT22;15241;48.374;10.876;2022-09-12T17:38:13;25.60;75.50
27896;DHT22;15241;48.374;10.876;2022-09-12T17:43:12;25.20;77.60
27896;DHT22;15241;48.374;10.876;2022-09-12T17:48:11;24.70;79.90
27896;DHT22;15241;48.374;10.876;2022-09-12T17:53:10;24.40;81.80
27896;DHT22;15241;48.374;10.876;2022-09-12T17:58:09;24.10;83.20
27896;DHT22;15241;48.374;10.876;2022-09-12T18:03:08;23.80;85.70
27896;DHT22;15241;48.374;10.876;2022-09-12T18:08:07;23.50;87.10
27896;DHT22;15241;48.374;10.876;2022-09-12T18:13:06;23.10;89.60
27896;DHT22;15241;48.374;10.876;2022-09-12T18:18:05;22.80;90.90
27896;DHT22;15241;48.374;10.876;2022-09-12T18:23:04;22.50;91.90
27896;DHT22;15241;48.374;10.876;2022-09-12T18:28:03;22.20;92.90
27896;DHT22;15241;48.374;10.876;2022-09-12T18:33:02;22.00;93.60
27896;DHT22;15241;48.374;10.876;2022-09-12T18:38:01;21.80;94.50
27896;DHT22;15241;48.374;10.876;2022-09-12T18:43:00;21.50;95.30
27896;DHT22;15241;48.374;10.876;2022-09-12T18:47:59;21.30;96.00
27896;DHT22;15241;48.374;10.876;2022-09-12T18:52:58;21.10;97.00
27896;DHT22;15241;48.374;10.876;2022-09-12T18:57:57;20.90;97.30
27896;DHT22;15241;48.374;10.876;2022-09-12T19:02:56;20.70;97.80
27896;DHT22;15241;48.374;10.876;2022-09-12T19:07:55;20.50;97.60
27896;DHT22;15241;48.374;10.876;2022-09-12T19:12:54;20.50;98.20
27896;DHT22;15241;48.374;10.876;2022-09-12T19:17:52;20.30;98.70
27896;DHT22;15241;48.374;10.876;2022-09-12T19:22:51;20.20;99.50
27896;DHT22;15241;48.374;10.876;2022-09-12T19:27:50;20.00;99.90
27896;DHT22;15241;48.374;10.876;2022-09-12T19:32:49;19.80;99.90
27896;DHT22;15241;48.374;10.876;2022-09-12T19:37:48;19.60;99.90
27896;DHT22;15241;48.374;10.876;2022-09-12T19:42:47;19.50;99.90
27896;DHT22;15241;48.374;10.876;2022-09-12T19:47:47;19.30;99.90
27896;DHT22;15241;48.374;10.876;2022-09-12T19:52:46;19.20;99.90
27896;DHT22;15241;48.374;10.876;2022-09-12T19:57:45;19.10;99.90
27896;DHT22;15241;48.374;10.876;2022-09-12T20:02:49;19.00;99.90
27896;DHT22;15241;48.374;10.876;2022-09-12T20:07:46;18.80;99.90
27896;DHT22;15241;48.374;10.876;2022-09-12T20:12:45;18.70;99.90
27896;DHT22;15241;48.374;10.876;2022-09-12T20:17:44;18.60;99.90
27896;DHT22;15241;48.374;10.876;2022-09-12T20:22:43;18.50;99.90
27896;DHT22;15241;48.374;10.876;2022-09-12T20:27:42;18.30;99.90
27896;DHT22;15241;48.374;10.876;2022-09-12T20:32:41;18.20;99.90
27896;DHT22;15241;48.374;10.876;2022-09-12T20:37:41;18.20;99.90
27896;DHT22;15241;48.374;10.876;2022-09-12T20:42:40;18.10;99.90
27896;DHT22;15241;48.374;10.876;2022-09-12T20:47:40;18.10;99.90
27896;DHT22;15241;48.374;10.876;2022-09-12T20:52:39;17.90;99.90
27896;DHT22;15241;48.374;10.876;2022-09-12T20:57:38;17.90;99.90
27896;DHT22;15241;48.374;10.876;2022-09-12T21:02:36;17.80;99.90
27896;DHT22;15241;48.374;10.876;2022-09-12T21:07:35;17.70;99.90
27896;DHT22;15241;48.374;10.876;2022-09-12T21:12:34;17.60;99.90
27896;DHT22;15241;48.374;10.876;2022-09-12T21:17:33;17.50;99.90
27896;DHT22;15241;48.374;10.876;2022-09-12T21:22:32;17.50;99.90
27896;DHT22;15241;48.374;10.876;2022-09-12T21:27:31;17.40;99.90
27896;DHT22;15241;48.374;10.876;2022-09-12T21:32:30;17.40;99.90
27896;DHT22;15241;48.374;10.876;2022-09-12T21:37:29;17.30;99.90
27896;DHT22;15241;48.374;10.876;2022-09-12T21:42:28;17.20;99.90
27896;DHT22;15241;48.374;10.876;2022-09-12T21:47:27;17.20;99.90
27896;DHT22;15241;48.374;10.876;2022-09-12T21:52:26;17.10;99.90
27896;DHT22;15241;48.374;10.876;2022-09-12T21:57:25;17.10;99.90
27896;DHT22;15241;48.374;10.876;2022-09-12T22:02:24;17.00;99.90
27896;DHT22;15241;48.374;10.876;2022-09-12T22:07:23;17.10;99.90
27896;DHT22;15241;48.374;10.876;2022-09-12T22:12:22;17.00;99.90
27896;DHT22;15241;48.374;10.876;2022-09-12T22:17:21;16.90;99.90
27896;DHT22;15241;48.374;10.876;2022-09-12T22:22:20;16.80;99.90
27896;DHT22;15241;48.374;10.876;2022-09-12T22:27:19;16.80;99.90
27896;DHT22;15241;48.374;10.876;2022-09-12T22:32:18;16.70;99.90
27896;DHT22;15241;48.374;10.876;2022-09-12T22:37:17;16.70;99.90
27896;DHT22;15241;48.374;10.876;2022-09-12T22:42:16;16.60;99.90
27896;DHT22;15241;48.374;10.876;2022-09-12T22:47:15;16.60;99.90
27896;DHT22;15241;48.374;10.876;2022-09-12T22:52:14;16.50;99.90
27896;DHT22;15241;48.374;10.876;2022-09-12T22:57:13;16.50;99.90
27896;DHT22;15241;48.374;10.876;2022-09-12T23:02:12;16.40;99.90
27896;DHT22;15241;48.374;10.876;2022-09-12T23:07:11;16.40;99.90
27896;DHT22;15241;48.374;10.876;2022-09-12T23:12:10;16.30;99.90
27896;DHT22;15241;48.374;10.876;2022-09-12T23:17:09;16.20;99.90
27896;DHT22;15241;48.374;10.876;2022-09-12T23:22:08;16.30;99.90
27896;DHT22;15241;48.374;10.876;2022-09-12T23:27:07;16.30;99.90
27896;DHT22;15241;48.374;10.876;2022-09-12T23:32:06;16.30;99.90
27896;DHT22;15241;48.374;10.876;2022-09-12T23:37:05;16.20;99.90
27896;DHT22;15241;48.374;10.876;2022-09-12T23:42:05;16.20;99.90
27896;DHT22;15241;48.374;10.876;2022-09-12T23:47:04;16.20;99.90
27896;DHT22;15241;48.374;10.876;2022-09-12T23:52:03;16.00;99.90
27896;DHT22;15241;48.374;10.876;2022-09-12T23:57:02;15.90;99.90
